Time;durP1;ratioP1;P1;durP2;ratioP2;P2;SDS_P1;SDS_P2;PMS_P1;PMS_P2;Temp;Humidity;BMP_temperature;BMP_pressure;BME280_temperature;BME280_humidity;BME280_pressure;Samples;Min_cycle;Max_cycle;Signal;HPM_P1;HPM_P2
2023/12/30 00:02:16;;;;;;;11.90;1.88;;;9.20;99.90;;;;;;5052953;28;20178;-51
2023/12/30 00:04:41;;;;;;;7.10;2.03;;;9.20;99.90;;;;;;5052801;28;20208;-52
2023/12/30 00:07:07;;;;;;;10.07;3.50;;;9.20;99.90;;;;;;5052865;28;20175;-51
2023/12/30 00:09:33;;;;;;;6.18;2.20;;;9.20;99.90;;;;;;5053095;28;20171;-51
2023/12/30 00:11:58;;;;;;;6.53;1.90;;;9.30;99.90;;;;;;5052820;28;20171;-51
2023/12/30 00:14:24;;;;;;;12.93;2.75;;;9.30;99.90;;;;;;5052723;28;20284;-51
2023/12/30 00:16:49;;;;;;;10.40;2.15;;;9.30;99.90;;;;;;5053243;28;20175;-53
2023/12/30 00:19:15;;;;;;;12.07;2.30;;;9.30;99.90;;;;;;5052674;28;20169;-52
2023/12/30 00:21:40;;;;;;;11.45;2.88;;;9.30;99.90;;;;;;5052605;28;20261;-51
2023/12/30 00:24:06;;;;;;;6.68;1.70;;;9.30;99.90;;;;;;5052511;28;20198;-51
2023/12/30 00:26:31;;;;;;;11.27;2.40;;;9.30;99.90;;;;;;5046486;28;20236;-55
2023/12/30 00:28:57;;;;;;;10.60;2.15;;;9.40;99.90;;;;;;5032451;28;20249;-50
2023/12/30 00:31:24;;;;;;;6.18;1.95;;;9.30;99.90;;;;;;5032833;28;20627;-53
2023/12/30 00:33:50;;;;;;;9.63;2.45;;;9.30;99.90;;;;;;5033162;28;20276;-54
2023/12/30 00:36:16;;;;;;;9.68;2.53;;;9.30;99.90;;;;;;5032319;28;20650;-54
2023/12/30 00:38:42;;;;;;;10.48;2.33;;;9.30;99.90;;;;;;5032254;28;20244;-53
2023/12/30 00:41:07;;;;;;;9.20;2.00;;;9.30;99.90;;;;;;5032325;28;20221;-54
2023/12/30 00:43:33;;;;;;;9.13;1.95;;;9.30;99.90;;;;;;5032223;28;20179;-53
2023/12/30 00:45:58;;;;;;;9.35;2.05;;;9.20;99.90;;;;;;5031479;28;20207;-52
2023/12/30 00:48:24;;;;;;;17.23;2.78;;;9.20;99.90;;;;;;5032126;28;20167;-51
2023/12/30 00:50:49;;;;;;;13.18;2.20;;;9.10;99.90;;;;;;5032589;28;20677;-52
2023/12/30 00:53:15;;;;;;;9.20;1.88;;;9.10;99.90;;;;;;5032282;28;20266;-51
2023/12/30 00:55:40;;;;;;;8.52;2.55;;;9.10;99.90;;;;;;5031792;28;20218;-51
2023/12/30 00:58:06;;;;;;;9.43;2.20;;;9.10;99.90;;;;;;5049819;28;20254;-52
2023/12/30 01:00:31;;;;;;;8.85;1.90;;;9.10;99.90;;;;;;5052118;28;20175;-51
2023/12/30 01:02:57;;;;;;;5.20;1.85;;;9.10;99.90;;;;;;5051889;28;20186;-51
2023/12/30 01:05:23;;;;;;;7.47;1.73;;;9.20;99.90;;;;;;5051874;28;20210;-50
2023/12/30 01:07:48;;;;;;;10.25;2.20;;;9.20;99.90;;;;;;5051493;28;20212;-52
2023/12/30 01:10:17;;;;;;;5.57;1.65;;;9.20;99.90;;;;;;5051705;28;20170;-51
2023/12/30 01:12:43;;;;;;;7.10;2.42;;;9.20;99.90;;;;;;5051630;28;20242;-51
2023/12/30 01:15:09;;;;;;;7.15;1.83;;;9.20;99.90;;;;;;5051515;28;20300;-51
2023/12/30 01:17:34;;;;;;;11.48;2.10;;;9.20;99.90;;;;;;5051805;28;20253;-50
2023/12/30 01:20:00;;;;;;;11.68;2.13;;;9.20;99.90;;;;;;5051742;28;20232;-51
2023/12/30 01:22:26;;;;;;;10.88;2.17;;;9.20;99.90;;;;;;5051551;28;20216;-54
2023/12/30 01:24:51;;;;;;;11.23;2.75;;;9.20;99.90;;;;;;5051907;28;20202;-54
2023/12/30 01:27:17;;;;;;;12.35;1.80;;;9.10;99.90;;;;;;5037389;28;20198;-54
2023/12/30 01:29:42;;;;;;;10.80;2.20;;;9.10;99.90;;;;;;5031406;28;20539;-56
2023/12/30 01:32:08;;;;;;;5.55;1.67;;;9.10;99.90;;;;;;5031448;28;20623;-54
2023/12/30 01:34:33;;;;;;;12.85;2.22;;;9.10;99.90;;;;;;5031459;28;20250;-54
2023/12/30 01:36:59;;;;;;;10.65;2.13;;;9.10;99.90;;;;;;5031401;28;20265;-52
2023/12/30 01:39:24;;;;;;;12.95;2.20;;;9.00;99.90;;;;;;5031325;28;20626;-52
2023/12/30 01:41:51;;;;;;;8.25;1.73;;;9.00;99.90;;;;;;5032011;28;20172;-54
2023/12/30 01:44:17;;;;;;;9.85;2.28;;;9.00;99.90;;;;;;5031468;28;20562;-51
2023/12/30 01:46:43;;;;;;;8.02;1.63;;;9.00;99.90;;;;;;5031204;28;20172;-54
2023/12/30 01:49:10;;;;;;;8.70;1.55;;;9.00;99.90;;;;;;5031257;28;20658;-52
2023/12/30 01:51:35;;;;;;;5.45;1.73;;;9.00;99.90;;;;;;5031139;28;20194;-52
2023/12/30 01:54:03;;;;;;;11.65;2.72;;;9.00;99.90;;;;;;5030529;28;20167;-50
2023/12/30 01:56:28;;;;;;;5.95;2.10;;;9.00;99.90;;;;;;5038616;28;20171;-52
2023/12/30 01:58:54;;;;;;;9.38;2.42;;;9.10;99.90;;;;;;5055218;28;20177;-52
2023/12/30 02:01:26;;;;;;;9.88;2.25;;;9.00;99.90;;;;;;5055729;28;20266;-52
2023/12/30 02:03:52;;;;;;;5.07;1.67;;;9.00;99.90;;;;;;5055533;28;20641;-54
2023/12/30 02:06:18;;;;;;;9.43;2.35;;;8.90;99.90;;;;;;5054817;28;20182;-53
2023/12/30 02:08:44;;;;;;;8.77;1.83;;;8.80;99.90;;;;;;5055041;28;20182;-54
2023/12/30 02:11:11;;;;;;;5.75;2.03;;;8.80;99.90;;;;;;5053324;28;20167;-53
2023/12/30 02:13:40;;;;;;;10.90;1.98;;;8.80;99.90;;;;;;5055077;28;20238;-54
2023/12/30 02:16:06;;;;;;;7.30;2.00;;;8.70;99.90;;;;;;5054879;28;20174;-53
2023/12/30 02:18:31;;;;;;;11.73;2.00;;;8.70;99.90;;;;;;5054994;28;20171;-53
2023/12/30 02:20:57;;;;;;;8.77;2.13;;;8.80;99.90;;;;;;5054858;28;20177;-54
2023/12/30 02:23:22;;;;;;;9.02;2.38;;;8.80;99.90;;;;;;5055309;28;20171;-53
2023/12/30 02:25:48;;;;;;;8.88;2.25;;;8.80;99.90;;;;;;5053237;28;20328;-54
2023/12/30 02:28:14;;;;;;;8.85;2.00;;;8.90;99.90;;;;;;5034994;28;20517;-53
2023/12/30 02:30:39;;;;;;;10.38;2.22;;;8.80;99.90;;;;;;5034771;28;20317;-54
2023/12/30 02:33:06;;;;;;;11.10;1.90;;;8.80;99.90;;;;;;5034666;28;20675;-53
2023/12/30 02:35:31;;;;;;;6.45;2.10;;;8.80;99.90;;;;;;5034627;28;20210;-53
2023/12/30 02:37:57;;;;;;;5.75;2.30;;;8.90;99.90;;;;;;5034608;28;20198;-53
2023/12/30 02:40:22;;;;;;;8.80;2.28;;;8.90;99.90;;;;;;5035277;28;20191;-53
2023/12/30 02:42:48;;;;;;;14.75;2.28;;;8.90;99.90;;;;;;5034544;28;20179;-51
2023/12/30 02:45:14;;;;;;;6.60;2.25;;;8.90;99.90;;;;;;5034479;28;21100;-53
2023/12/30 02:47:40;;;;;;;5.15;2.10;;;9.00;99.90;;;;;;5034458;28;20167;-53
2023/12/30 02:50:06;;;;;;;8.27;1.88;;;8.90;99.90;;;;;;5034240;28;20246;-57
2023/12/30 02:52:32;;;;;;;11.80;2.70;;;8.90;99.90;;;;;;5034400;28;20167;-58
2023/12/30 02:54:59;;;;;;;12.75;2.75;;;8.90;99.90;;;;;;5034161;28;20219;-56
2023/12/30 02:57:25;;;;;;;10.10;1.80;;;8.90;99.90;;;;;;5051058;28;20193;-54
2023/12/30 02:59:51;;;;;;;11.55;3.65;;;8.90;99.90;;;;;;5054989;28;20212;-62
2023/12/30 03:02:16;;;;;;;6.53;2.45;;;8.90;99.90;;;;;;5054094;28;20678;-53
2023/12/30 03:04:42;;;;;;;11.00;2.47;;;8.90;99.90;;;;;;5054273;28;20213;-52
2023/12/30 03:07:08;;;;;;;11.48;2.03;;;8.90;99.90;;;;;;5053920;28;20179;-52
2023/12/30 03:09:34;;;;;;;9.75;2.50;;;8.90;99.90;;;;;;5053609;28;20209;-52
2023/12/30 03:12:02;;;;;;;9.05;2.22;;;8.90;99.90;;;;;;5054228;28;20194;-53
2023/12/30 03:14:27;;;;;;;12.82;2.65;;;8.80;99.90;;;;;;5054229;28;20175;-53
2023/12/30 03:16:53;;;;;;;12.57;2.35;;;8.80;99.90;;;;;;5054374;28;20248;-54
2023/12/30 03:19:19;;;;;;;6.97;1.60;;;8.80;99.90;;;;;;5053795;28;20167;-53
2023/12/30 03:21:45;;;;;;;7.30;1.80;;;8.80;99.90;;;;;;5053763;28;20170;-53
2023/12/30 03:24:11;;;;;;;9.40;1.90;;;8.80;99.90;;;;;;5053568;28;20210;-53
2023/12/30 03:26:36;;;;;;;6.57;2.20;;;8.80;99.90;;;;;;5053216;28;20583;-56
2023/12/30 03:29:02;;;;;;;8.55;2.28;;;8.70;99.90;;;;;;5053665;28;20175;-53
2023/12/30 03:31:27;;;;;;;9.20;2.28;;;8.70;99.90;;;;;;5053609;28;20175;-56
2023/12/30 03:33:54;;;;;;;10.02;2.10;;;8.70;99.90;;;;;;5053611;28;20167;-54
2023/12/30 03:36:20;;;;;;;8.50;2.88;;;8.70;99.90;;;;;;5054013;28;20241;-53
2023/12/30 03:38:51;;;;;;;7.85;2.35;;;8.70;99.90;;;;;;5053683;28;20201;-54
2023/12/30 03:41:17;;;;;;;11.00;2.55;;;8.80;99.90;;;;;;5053320;28;20246;-54
2023/12/30 03:43:43;;;;;;;14.77;2.38;;;8.80;99.90;;;;;;5053616;28;20261;-54
2023/12/30 03:46:08;;;;;;;8.52;1.60;;;8.80;99.90;;;;;;5053523;28;20178;-55
2023/12/30 03:48:34;;;;;;;13.38;2.33;;;8.80;99.90;;;;;;5053286;28;20175;-53
2023/12/30 03:50:59;;;;;;;8.85;1.98;;;8.80;99.90;;;;;;5051993;28;20166;-53
2023/12/30 03:53:25;;;;;;;7.13;2.10;;;8.80;99.90;;;;;;5053169;28;20166;-53
2023/12/30 03:55:50;;;;;;;8.32;2.17;;;8.80;99.90;;;;;;5049686;28;20217;-52
2023/12/30 03:58:16;;;;;;;13.35;2.88;;;8.80;99.90;;;;;;5033110;28;20259;-56
2023/12/30 04:00:42;;;;;;;17.30;3.38;;;8.70;99.90;;;;;;5033017;28;20221;-54
2023/12/30 04:03:08;;;;;;;11.15;2.67;;;8.70;99.90;;;;;;5033060;28;20179;-54
2023/12/30 04:05:34;;;;;;;12.55;2.40;;;8.70;99.90;;;;;;5032844;28;20211;-56
2023/12/30 04:07:59;;;;;;;11.85;3.05;;;8.70;99.90;;;;;;5032993;28;20167;-54
2023/12/30 04:10:25;;;;;;;15.52;3.15;;;8.70;99.90;;;;;;5031585;28;20167;-52
2023/12/30 04:12:50;;;;;;;13.38;2.83;;;8.70;99.90;;;;;;5032912;28;20172;-52
2023/12/30 04:15:16;;;;;;;12.38;2.85;;;8.70;99.90;;;;;;5032987;28;20205;-52
2023/12/30 04:17:41;;;;;;;12.00;2.78;;;8.70;99.90;;;;;;5032942;28;20167;-52
2023/12/30 04:20:07;;;;;;;7.50;2.00;;;8.70;99.90;;;;;;5031720;28;20175;-51
2023/12/30 04:22:33;;;;;;;9.30;2.75;;;8.70;99.90;;;;;;5032931;28;20225;-49
2023/12/30 04:24:59;;;;;;;14.57;2.65;;;8.70;99.90;;;;;;5032806;28;20214;-49
2023/12/30 04:27:25;;;;;;;14.63;3.05;;;8.70;99.90;;;;;;5051350;28;20186;-50
2023/12/30 04:29:51;;;;;;;9.57;2.78;;;8.70;99.90;;;;;;5052901;28;20217;-50
2023/12/30 04:32:16;;;;;;;14.48;2.65;;;8.70;99.90;;;;;;5052455;28;20170;-49
2023/12/30 04:34:42;;;;;;;12.18;3.47;;;8.70;99.90;;;;;;5052396;28;20171;-50
2023/12/30 04:37:07;;;;;;;7.50;1.92;;;8.70;99.90;;;;;;5052332;28;20171;-53
2023/12/30 04:39:33;;;;;;;11.75;2.65;;;8.70;99.90;;;;;;5052363;28;20170;-52
2023/12/30 04:41:59;;;;;;;9.10;2.05;;;8.70;99.90;;;;;;5052133;28;20567;-54
2023/12/30 04:44:25;;;;;;;12.32;3.20;;;8.70;99.90;;;;;;5052369;28;20252;-52
2023/12/30 04:46:50;;;;;;;9.98;2.67;;;8.70;99.90;;;;;;5052673;28;20190;-52
2023/12/30 04:49:16;;;;;;;12.73;3.33;;;8.60;99.90;;;;;;5052067;28;20522;-54
2023/12/30 04:51:41;;;;;;;14.20;2.63;;;8.60;99.90;;;;;;5052079;28;20190;-54
2023/12/30 04:54:07;;;;;;;11.30;2.33;;;8.60;99.90;;;;;;5051895;28;20170;-52
2023/12/30 04:56:33;;;;;;;11.25;2.22;;;8.60;99.90;;;;;;5040265;28;20187;-53
2023/12/30 04:58:59;;;;;;;11.75;2.88;;;8.60;99.90;;;;;;5036988;28;20657;-53
2023/12/30 05:01:25;;;;;;;17.10;4.05;;;8.60;99.90;;;;;;5051770;28;20197;-54
2023/12/30 05:03:50;;;;;;;15.43;2.95;;;8.60;99.90;;;;;;5049471;28;20210;-54
2023/12/30 05:06:23;;;;;;;11.45;1.67;;;8.60;99.90;;;;;;5031944;28;20180;-53
2023/12/30 05:08:50;;;;;;;7.80;2.38;;;8.60;99.90;;;;;;5031833;28;20168;-53
2023/12/30 05:11:16;;;;;;;9.52;2.00;;;8.60;99.90;;;;;;5030558;28;20195;-53
2023/12/30 05:13:43;;;;;;;9.57;2.20;;;8.60;99.90;;;;;;5030493;28;20211;-53
2023/12/30 05:16:09;;;;;;;8.85;2.53;;;8.60;99.90;;;;;;5031727;28;20276;-54
2023/12/30 05:18:34;;;;;;;18.60;2.90;;;8.60;99.90;;;;;;5033866;28;20659;-61
2023/12/30 05:21:00;;;;;;;9.32;2.60;;;8.60;99.90;;;;;;5051403;28;20170;-54
2023/12/30 05:23:25;;;;;;;9.40;2.35;;;8.60;99.90;;;;;;5051659;28;20213;-53
2023/12/30 05:25:51;;;;;;;12.32;2.28;;;8.60;99.90;;;;;;5051987;28;20771;-64
2023/12/30 05:28:16;;;;;;;8.20;2.60;;;8.50;99.90;;;;;;5051512;28;20530;-63
2023/12/30 05:30:42;;;;;;;12.10;2.15;;;8.50;99.90;;;;;;5051690;28;20175;-64
2023/12/30 05:33:08;;;;;;;13.98;2.72;;;8.50;99.90;;;;;;5051102;28;20249;-51
2023/12/30 05:35:35;;;;;;;9.80;2.60;;;8.50;99.90;;;;;;5051382;28;20163;-64
2023/12/30 05:38:01;;;;;;;12.95;2.22;;;8.50;99.90;;;;;;5051593;28;20179;-63
2023/12/30 05:40:26;;;;;;;12.00;2.70;;;8.40;99.90;;;;;;5051247;28;20185;-55
2023/12/30 05:42:52;;;;;;;8.02;2.13;;;8.40;99.90;;;;;;5051728;28;20178;-64
2023/12/30 05:45:18;;;;;;;14.27;2.35;;;8.40;99.90;;;;;;5051155;28;20272;-64
2023/12/30 05:47:43;;;;;;;14.65;2.97;;;8.50;99.90;;;;;;5051216;28;20220;-59
2023/12/30 05:50:11;;;;;;;8.82;2.83;;;8.50;99.90;;;;;;5036903;28;20191;-64
2023/12/30 05:52:36;;;;;;;13.30;2.30;;;8.50;99.90;;;;;;5031143;28;20179;-62
2023/12/30 05:55:02;;;;;;;10.85;2.60;;;8.50;99.90;;;;;;5031035;28;20747;-64
2023/12/30 05:57:28;;;;;;;12.63;2.58;;;8.50;99.90;;;;;;5031394;28;20623;-63
2023/12/30 05:59:53;;;;;;;9.43;2.60;;;8.50;99.90;;;;;;5031622;28;20199;-54
2023/12/30 06:02:19;;;;;;;9.40;1.95;;;8.50;99.90;;;;;;5031451;28;20171;-64
2023/12/30 06:04:44;;;;;;;10.75;2.55;;;8.50;99.90;;;;;;5031101;28;20294;-60
2023/12/30 06:07:10;;;;;;;13.73;2.53;;;8.50;99.90;;;;;;5031010;28;20214;-63
2023/12/30 06:09:36;;;;;;;10.57;2.35;;;8.50;99.90;;;;;;5031138;28;20194;-58
2023/12/30 06:12:02;;;;;;;10.80;2.88;;;8.50;99.90;;;;;;5031003;28;20181;-63
2023/12/30 06:14:28;;;;;;;19.23;3.40;;;8.60;99.90;;;;;;5031247;28;20214;-64
2023/12/30 06:16:53;;;;;;;12.02;2.45;;;8.50;99.90;;;;;;5031501;28;20631;-62
2023/12/30 06:19:19;;;;;;;11.65;2.15;;;8.00;99.90;;;;;;5039155;28;20254;-64
2023/12/30 06:21:44;;;;;;;8.85;2.10;;;8.50;99.90;;;;;;5048859;28;20538;-65
2023/12/30 06:24:10;;;;;;;15.10;2.63;;;8.60;99.90;;;;;;5050954;28;20643;-65
2023/12/30 06:26:39;;;;;;;13.55;2.30;;;8.60;99.90;;;;;;5050979;28;20203;-62
2023/12/30 06:29:06;;;;;;;8.70;2.17;;;8.60;99.90;;;;;;5051020;28;20308;-64
2023/12/30 06:31:32;;;;;;;12.05;2.40;;;8.60;99.90;;;;;;5050740;28;20241;-65
2023/12/30 06:33:57;;;;;;;16.40;2.95;;;8.60;99.90;;;;;;5050975;28;20190;-63
2023/12/30 06:36:23;;;;;;;12.40;2.58;;;8.60;99.90;;;;;;5051144;28;20537;-64
2023/12/30 06:38:50;;;;;;;11.77;2.40;;;8.60;99.90;;;;;;5051134;28;20179;-65
2023/12/30 06:41:18;;;;;;;10.93;2.15;;;8.70;99.90;;;;;;5050504;28;20167;-62
2023/12/30 06:43:44;;;;;;;11.68;2.75;;;8.70;99.90;;;;;;5051478;28;20163;-65
2023/12/30 06:46:10;;;;;;;11.80;2.58;;;8.70;99.90;;;;;;5054324;28;20214;-65
2023/12/30 06:48:35;;;;;;;12.55;2.72;;;8.70;99.90;;;;;;5053491;28;20179;-66
2023/12/30 06:51:02;;;;;;;12.15;2.40;;;8.70;99.90;;;;;;5040475;28;20513;-60
2023/12/30 06:53:31;;;;;;;14.43;3.03;;;8.70;99.90;;;;;;5034552;28;20221;-64
2023/12/30 06:56:03;;;;;;;16.00;2.90;;;8.70;99.90;;;;;;5034189;28;20337;-64
2023/12/30 06:58:29;;;;;;;16.88;3.17;;;8.70;99.90;;;;;;5034324;28;20508;-64
2023/12/30 07:00:55;;;;;;;12.43;2.60;;;8.70;99.90;;;;;;5034042;28;20175;-62
2023/12/30 07:03:20;;;;;;;12.35;2.55;;;8.70;99.90;;;;;;5034575;28;20179;-62
2023/12/30 07:05:46;;;;;;;9.88;2.33;;;8.70;99.90;;;;;;5033862;28;20251;-59
2023/12/30 07:08:12;;;;;;;12.30;2.92;;;8.70;99.90;;;;;;5033987;28;20213;-60
2023/12/30 07:10:38;;;;;;;9.02;2.35;;;8.70;99.90;;;;;;5033921;28;20692;-63
2023/12/30 07:13:05;;;;;;;12.02;2.22;;;8.70;99.90;;;;;;5033726;28;20176;-63
2023/12/30 07:15:30;;;;;;;15.60;2.88;;;8.70;99.90;;;;;;5032606;28;20163;-61
2023/12/30 07:17:56;;;;;;;15.20;2.22;;;8.70;99.90;;;;;;5034080;28;20528;-60
2023/12/30 07:20:21;;;;;;;9.55;2.20;;;8.60;99.90;;;;;;5052762;28;20175;-59
2023/12/30 07:22:47;;;;;;;16.92;2.58;;;8.60;99.90;;;;;;5053727;28;20177;-61
2023/12/30 07:25:13;;;;;;;16.05;2.67;;;8.60;99.90;;;;;;5053644;28;20214;-62
2023/12/30 07:27:39;;;;;;;9.35;2.50;;;8.60;99.90;;;;;;5053307;28;20531;-62
2023/12/30 07:30:05;;;;;;;9.82;3.20;;;8.60;99.90;;;;;;5053460;28;20166;-62
2023/12/30 07:32:30;;;;;;;10.23;2.30;;;8.60;99.90;;;;;;5053469;28;20169;-62
2023/12/30 07:34:56;;;;;;;11.45;2.65;;;8.60;99.90;;;;;;5053638;28;20174;-63
2023/12/30 07:37:22;;;;;;;7.95;2.13;;;8.60;99.90;;;;;;5053904;28;20174;-59
2023/12/30 07:39:49;;;;;;;15.50;2.83;;;8.60;99.90;;;;;;5053323;28;20257;-63
2023/12/30 07:42:16;;;;;;;7.25;2.10;;;8.60;99.90;;;;;;5053039;28;20167;-55
2023/12/30 07:44:41;;;;;;;10.07;2.67;;;8.60;99.90;;;;;;5053150;28;20202;-53
2023/12/30 07:47:07;;;;;;;7.53;2.63;;;8.60;99.90;;;;;;5052458;28;20167;-53
2023/12/30 07:49:33;;;;;;;10.57;2.83;;;8.60;99.90;;;;;;5040396;28;20183;-53
2023/12/30 07:52:00;;;;;;;7.72;2.20;;;8.70;99.90;;;;;;5033228;28;20663;-54
2023/12/30 07:54:26;;;;;;;9.98;2.28;;;8.60;99.90;;;;;;5033118;28;20226;-52
2023/12/30 07:56:52;;;;;;;11.93;2.53;;;8.60;99.90;;;;;;5033841;28;20175;-53
2023/12/30 07:59:17;;;;;;;12.77;3.05;;;8.60;99.90;;;;;;5033062;28;20194;-54
2023/12/30 08:01:46;;;;;;;9.93;2.65;;;8.60;99.90;;;;;;5032974;28;20251;-57
2023/12/30 08:04:13;;;;;;;11.15;2.65;;;8.60;99.90;;;;;;5032818;28;20229;-54
2023/12/30 08:06:40;;;;;;;5.85;1.90;;;8.60;99.90;;;;;;5033099;28;20233;-58
2023/12/30 08:09:05;;;;;;;8.30;2.00;;;8.60;99.90;;;;;;5032728;28;20168;-52
2023/12/30 08:11:33;;;;;;;8.48;2.60;;;8.60;99.90;;;;;;5033023;28;20183;-53
2023/12/30 08:13:58;;;;;;;7.93;3.08;;;8.60;99.90;;;;;;5032838;28;20187;-51
2023/12/30 08:16:24;;;;;;;12.25;2.10;;;8.60;99.90;;;;;;5032699;28;20268;-59
2023/12/30 08:18:49;;;;;;;11.45;3.35;;;8.60;99.90;;;;;;5041321;28;20179;-56
2023/12/30 08:21:15;;;;;;;13.48;3.03;;;8.60;99.90;;;;;;5052241;28;20182;-59
2023/12/30 08:23:40;;;;;;;13.20;3.95;;;8.70;99.90;;;;;;5052531;28;20175;-54
2023/12/30 08:26:06;;;;;;;11.57;2.50;;;8.70;99.90;;;;;;5052421;28;20198;-56
2023/12/30 08:28:32;;;;;;;10.68;2.30;;;8.70;99.90;;;;;;5052446;28;20165;-61
2023/12/30 08:30:59;;;;;;;15.93;2.60;;;8.70;99.90;;;;;;5052469;28;20201;-58
2023/12/30 08:33:27;;;;;;;15.82;3.55;;;8.70;99.90;;;;;;5052625;28;20169;-56
2023/12/30 08:35:53;;;;;;;12.98;3.00;;;8.70;99.90;;;;;;5052892;28;20642;-52
2023/12/30 08:38:19;;;;;;;9.60;3.00;;;8.70;99.90;;;;;;5052994;28;20205;-55
2023/12/30 08:40:45;;;;;;;9.98;3.25;;;8.70;99.90;;;;;;5052485;28;20575;-61
2023/12/30 08:43:12;;;;;;;10.75;3.47;;;8.80;99.90;;;;;;5052134;28;20167;-62
2023/12/30 08:45:38;;;;;;;13.20;2.65;;;8.80;99.90;;;;;;5052344;28;20268;-58
2023/12/30 08:48:04;;;;;;;10.32;2.20;;;8.80;99.90;;;;;;5049909;28;20159;-59
2023/12/30 08:50:31;;;;;;;11.05;2.35;;;8.80;99.90;;;;;;5032250;28;20186;-60
2023/12/30 08:52:56;;;;;;;7.63;2.25;;;8.80;99.90;;;;;;5032120;28;20168;-57
2023/12/30 08:55:22;;;;;;;8.25;2.35;;;8.80;99.90;;;;;;5031073;28;20285;-59
2023/12/30 08:57:47;;;;;;;13.02;2.58;;;8.80;99.90;;;;;;5031950;28;20523;-61
2023/12/30 09:00:14;;;;;;;8.80;2.58;;;8.80;99.90;;;;;;5031953;28;20513;-59
2023/12/30 09:02:46;;;;;;;7.85;2.67;;;8.80;99.90;;;;;;5032151;28;20171;-57
2023/12/30 09:05:18;;;;;;;8.63;2.15;;;8.90;99.90;;;;;;5031837;28;20206;-53
2023/12/30 09:07:44;;;;;;;11.10;2.50;;;8.90;99.90;;;;;;5031566;28;20175;-59
2023/12/30 09:10:10;;;;;;;12.40;2.40;;;8.90;99.90;;;;;;5031739;28;20167;-56
2023/12/30 09:12:36;;;;;;;20.30;2.85;;;9.00;99.90;;;;;;5031751;28;20570;-53
2023/12/30 09:15:01;;;;;;;10.70;2.65;;;9.00;99.90;;;;;;5031729;28;20175;-56
2023/12/30 09:17:27;;;;;;;16.42;3.03;;;9.00;99.90;;;;;;5031647;28;20163;-54
2023/12/30 09:19:52;;;;;;;13.23;2.65;;;9.10;99.90;;;;;;5050845;28;20645;-61
2023/12/30 09:22:19;;;;;;;6.85;2.53;;;9.10;99.90;;;;;;5051852;28;20233;-55
2023/12/30 09:24:45;;;;;;;10.77;2.83;;;9.10;99.90;;;;;;5051329;28;20199;-55
2023/12/30 09:27:11;;;;;;;7.97;1.92;;;9.10;99.90;;;;;;5051257;28;20187;-56
2023/12/30 09:29:36;;;;;;;13.48;2.58;;;9.10;99.90;;;;;;5051385;28;20166;-58
2023/12/30 09:32:02;;;;;;;12.80;2.88;;;9.20;99.90;;;;;;5051250;28;20178;-59
2023/12/30 09:34:28;;;;;;;11.18;2.88;;;9.20;99.90;;;;;;5051571;28;20179;-62
2023/12/30 09:36:54;;;;;;;11.68;2.40;;;9.20;99.90;;;;;;5051306;28;20538;-63
2023/12/30 09:39:20;;;;;;;12.77;2.00;;;9.20;99.90;;;;;;5051863;28;20163;-63
2023/12/30 09:41:45;;;;;;;14.68;2.80;;;9.20;99.90;;;;;;5051318;28;20699;-63
2023/12/30 09:44:12;;;;;;;11.60;2.40;;;9.20;99.90;;;;;;5051126;28;20171;-64
2023/12/30 09:46:40;;;;;;;11.48;2.53;;;9.20;99.90;;;;;;5051134;28;20162;-64
2023/12/30 09:49:07;;;;;;;12.07;2.35;;;9.30;99.90;;;;;;5038598;28;20186;-65
2023/12/30 09:51:33;;;;;;;10.45;2.63;;;9.30;99.90;;;;;;5031125;28;20221;-62
2023/12/30 09:53:59;;;;;;;8.20;1.83;;;9.30;99.90;;;;;;5031422;28;20641;-63
2023/12/30 09:56:26;;;;;;;11.60;2.63;;;9.40;99.90;;;;;;5030927;28;20230;-67
2023/12/30 09:58:53;;;;;;;11.88;2.83;;;9.40;99.90;;;;;;5031942;28;20246;-63
2023/12/30 10:01:20;;;;;;;13.57;2.63;;;9.40;99.90;;;;;;5031616;28;20164;-60
2023/12/30 10:03:46;;;;;;;7.45;2.05;;;9.40;99.90;;;;;;5031175;28;20167;-64
2023/12/30 10:06:14;;;;;;;11.95;2.97;;;9.40;99.90;;;;;;5031259;28;20634;-64
2023/12/30 10:08:43;;;;;;;10.73;3.13;;;9.50;99.90;;;;;;5031258;28;20250;-64
2023/12/30 10:11:10;;;;;;;15.98;2.97;;;9.50;99.90;;;;;;5031081;28;20163;-64
2023/12/30 10:13:36;;;;;;;13.63;3.10;;;9.50;99.90;;;;;;5031061;28;20178;-64
2023/12/30 10:16:05;;;;;;;7.47;2.50;;;9.50;99.90;;;;;;5030968;28;20172;-63
2023/12/30 10:18:36;;;;;;;7.65;2.10;;;9.50;99.90;;;;;;5031774;28;20250;-61
2023/12/30 10:21:04;;;;;;;11.32;3.65;;;9.50;99.90;;;;;;5035230;28;20175;-63
2023/12/30 10:23:33;;;;;;;8.93;2.13;;;9.50;99.90;;;;;;5034884;28;20653;-61
2023/12/30 10:26:00;;;;;;;13.15;2.47;;;9.50;99.90;;;;;;5034964;28;20254;-63
2023/12/30 10:28:27;;;;;;;12.63;3.10;;;9.60;99.90;;;;;;5034953;28;20246;-62
2023/12/30 10:31:05;;;;;;;15.57;2.63;;;9.60;99.90;;;;;;5035139;28;20642;-63
2023/12/30 10:33:33;;;;;;;11.70;2.42;;;9.60;99.90;;;;;;5034798;28;20197;-62
2023/12/30 10:35:59;;;;;;;12.57;3.10;;;9.60;99.90;;;;;;5034887;28;20178;-61
2023/12/30 10:38:26;;;;;;;13.13;2.83;;;9.70;99.90;;;;;;5034465;28;20175;-62
2023/12/30 10:40:52;;;;;;;6.05;2.33;;;9.70;99.90;;;;;;5035087;28;20175;-62
2023/12/30 10:43:19;;;;;;;13.27;2.63;;;9.70;99.90;;;;;;5034981;28;20199;-57
2023/12/30 10:45:58;;;;;;;8.13;2.58;;;9.60;99.90;;;;;;5034372;28;20290;-63
2023/12/30 10:48:28;;;;;;;9.35;2.47;;;9.70;99.90;;;;;;5043090;28;20269;-60
2023/12/30 10:50:56;;;;;;;12.40;2.85;;;9.70;99.90;;;;;;5054383;28;20166;-61
2023/12/30 10:53:39;;;;;;;8.52;2.03;;;9.70;99.90;;;;;;5054746;28;20250;-61
2023/12/30 10:56:08;;;;;;;11.25;2.53;;;9.70;99.90;;;;;;5054013;28;20210;-60
2023/12/30 10:58:37;;;;;;;8.35;2.30;;;9.80;99.90;;;;;;5054157;28;20167;-63
2023/12/30 11:01:04;;;;;;;12.20;2.40;;;9.70;99.90;;;;;;5052778;28;20177;-53
2023/12/30 11:03:32;;;;;;;15.50;2.92;;;9.80;99.90;;;;;;5054059;28;20260;-53
2023/12/30 11:06:04;;;;;;;9.90;1.98;;;9.80;99.90;;;;;;5054193;28;20249;-55
2023/12/30 11:08:30;;;;;;;6.75;2.20;;;9.80;99.90;;;;;;5054025;28;20627;-53
2023/12/30 11:11:01;;;;;;;6.20;2.28;;;9.80;99.90;;;;;;5054094;28;20181;-52
2023/12/30 11:13:26;;;;;;;7.32;1.92;;;9.90;99.90;;;;;;5053916;28;20174;-53
2023/12/30 11:15:52;;;;;;;8.93;2.22;;;9.90;99.90;;;;;;5054246;28;20175;-51
2023/12/30 11:18:44;;;;;;;10.57;2.22;;;9.90;99.90;;;;;;5052801;28;20170;-55
2023/12/30 11:21:10;;;;;;;7.38;2.47;;;9.90;99.90;;;;;;5053091;28;20183;-54
2023/12/30 11:23:35;;;;;;;10.13;2.38;;;10.00;99.90;;;;;;5053699;28;20516;-55
2023/12/30 11:26:04;;;;;;;6.32;2.50;;;10.00;99.90;;;;;;5053523;28;20613;-60
2023/12/30 11:28:32;;;;;;;12.60;2.53;;;10.00;99.90;;;;;;5053681;28;20251;-59
2023/12/30 11:30:59;;;;;;;12.40;2.17;;;10.10;99.90;;;;;;5052990;28;20171;-54
2023/12/30 11:33:25;;;;;;;13.68;2.47;;;10.10;99.90;;;;;;5053959;28;20605;-54
2023/12/30 11:35:56;;;;;;;5.43;2.30;;;10.20;99.90;;;;;;5052669;28;20664;-56
2023/12/30 11:38:22;;;;;;;13.77;2.95;;;10.20;99.90;;;;;;5053898;28;20221;-59
2023/12/30 11:40:57;;;;;;;8.23;2.30;;;10.20;99.90;;;;;;5054098;28;20171;-59
2023/12/30 11:43:25;;;;;;;12.07;3.47;;;10.30;99.90;;;;;;5053578;28;20246;-53
2023/12/30 11:45:53;;;;;;;7.97;2.33;;;10.40;99.90;;;;;;5053647;28;20570;-58
2023/12/30 11:48:18;;;;;;;9.27;2.50;;;10.40;99.90;;;;;;5043361;28;20167;-57
2023/12/30 11:50:44;;;;;;;8.07;2.47;;;10.40;99.90;;;;;;5033568;28;20178;-54
2023/12/30 11:53:10;;;;;;;10.85;2.33;;;10.40;99.90;;;;;;5033440;28;20159;-61
2023/12/30 11:55:35;;;;;;;5.75;2.10;;;10.40;99.90;;;;;;5032968;28;20215;-58
2023/12/30 11:58:02;;;;;;;7.65;2.33;;;10.40;99.90;;;;;;5032898;28;20172;-56
2023/12/30 12:00:27;;;;;;;8.25;1.63;;;10.40;99.90;;;;;;5032600;28;20206;-57
2023/12/30 12:02:54;;;;;;;9.48;2.22;;;10.40;99.90;;;;;;5032885;28;20195;-61
2023/12/30 12:05:20;;;;;;;5.85;1.88;;;10.40;99.90;;;;;;5033653;28;20207;-61
2023/12/30 12:07:46;;;;;;;5.32;2.05;;;10.50;99.90;;;;;;5032930;28;20170;-58
2023/12/30 12:10:12;;;;;;;6.38;2.42;;;10.50;99.90;;;;;;5032884;28;20187;-61
2023/12/30 12:12:39;;;;;;;10.63;1.95;;;10.60;99.90;;;;;;5032974;28;20195;-62
2023/12/30 12:15:07;;;;;;;8.25;2.13;;;10.70;99.90;;;;;;5033122;28;20225;-56
2023/12/30 12:17:34;;;;;;;9.15;1.83;;;10.60;99.90;;;;;;5038719;28;20213;-61
2023/12/30 12:20:01;;;;;;;7.65;1.60;;;10.50;99.90;;;;;;5052649;28;20194;-59
2023/12/30 12:22:26;;;;;;;7.35;2.13;;;10.50;99.90;;;;;;5052534;28;20548;-57
2023/12/30 12:24:52;;;;;;;5.72;1.67;;;10.50;99.90;;;;;;5053011;28;20264;-57
2023/12/30 12:27:22;;;;;;;7.43;1.73;;;10.50;99.90;;;;;;5052986;28;20646;-61
2023/12/30 12:29:52;;;;;;;6.22;1.85;;;10.50;99.90;;;;;;5052959;28;20159;-57
2023/12/30 12:32:22;;;;;;;8.68;2.00;;;10.50;99.90;;;;;;5053144;28;20221;-53
2023/12/30 12:34:48;;;;;;;9.75;1.70;;;10.60;99.90;;;;;;5052760;28;20174;-53
2023/12/30 12:37:17;;;;;;;6.72;2.08;;;10.60;99.90;;;;;;5051384;28;20171;-54
2023/12/30 12:39:44;;;;;;;5.03;1.50;;;10.60;99.90;;;;;;5052181;28;20167;-53
2023/12/30 12:42:15;;;;;;;6.90;1.60;;;10.50;99.90;;;;;;5051459;28;20312;-55
2023/12/30 12:44:41;;;;;;;8.98;2.22;;;10.50;99.90;;;;;;5052031;28;20562;-57
2023/12/30 12:47:09;;;;;;;7.25;1.88;;;10.50;99.90;;;;;;5049372;28;20173;-56